Time;durP1;ratioP1;P1;durP2;ratioP2;P2;SDS_P1;SDS_P2;PMS_P1;PMS_P2;Temp;Humidity;BMP_temperature;BMP_pressure;BME280_temperature;BME280_humidity;BME280_pressure;Samples;Min_cycle;Max_cycle;Signal;HPM_P1;HPM_P2
2023/07/24 00:01:03;;;;;;;;;;;26.60;55.30;;;;;;5095977;28;20372;-58
2023/07/24 00:03:30;;;;;;;;;;;26.60;55.20;;;;;;5095790;28;19931;-56
2023/07/24 00:05:58;;;;;;;;;;;26.60;55.20;;;;;;5095194;28;19970;-56
2023/07/24 00:08:26;;;;;;;;;;;26.60;55.30;;;;;;5096205;28;19974;-56
2023/07/24 00:10:53;;;;;;;;;;;26.60;55.20;;;;;;5096159;28;20425;-54
2023/07/24 00:13:20;;;;;;;;;;;26.60;55.30;;;;;;5096037;28;19928;-55
2023/07/24 00:15:47;;;;;;;;;;;26.60;55.30;;;;;;5095743;28;20023;-55
2023/07/24 00:18:14;;;;;;;;;;;26.60;55.20;;;;;;5095958;28;19924;-55
2023/07/24 00:20:40;;;;;;;;;;;26.60;55.30;;;;;;5095674;28;19924;-56
2023/07/24 00:23:07;;;;;;;;;;;26.50;55.20;;;;;;5095587;28;19963;-57
2023/07/24 00:25:34;;;;;;;;;;;26.50;55.20;;;;;;5095992;28;19932;-53
2023/07/24 00:28:01;;;;;;;;;;;26.60;55.20;;;;;;5095284;28;19969;-55
2023/07/24 00:30:28;;;;;;;;;;;26.60;55.40;;;;;;5095523;28;19975;-55
2023/07/24 00:32:55;;;;;;;;;;;26.50;55.20;;;;;;5095383;28;20020;-56
2023/07/24 00:35:22;;;;;;;;;;;26.50;55.40;;;;;;5095091;28;19924;-54
2023/07/24 00:37:49;;;;;;;;;;;26.50;55.40;;;;;;5095173;28;19924;-56
2023/07/24 00:40:16;;;;;;;;;;;26.50;55.30;;;;;;5095172;28;20414;-54
2023/07/24 00:42:48;;;;;;;;;;;26.50;55.40;;;;;;5095255;28;19977;-55
2023/07/24 00:45:15;;;;;;;;;;;26.50;55.40;;;;;;5095153;28;19977;-55
2023/07/24 00:47:42;;;;;;;;;;;26.50;55.50;;;;;;5095579;28;20019;-55
2023/07/24 00:50:10;;;;;;;;;;;26.50;55.40;;;;;;5095031;28;20015;-56
2023/07/24 00:52:37;;;;;;;;;;;26.50;55.40;;;;;;5095019;28;20403;-56
2023/07/24 00:55:05;;;;;;;;;;;26.50;55.40;;;;;;5094122;28;20007;-54
2023/07/24 00:57:32;;;;;;;;;;;26.50;55.40;;;;;;5095202;28;20358;-56
2023/07/24 00:59:59;;;;;;;;;;;26.50;55.70;;;;;;5094593;28;19972;-56
2023/07/24 01:02:27;;;;;;;;;;;26.50;55.60;;;;;;5094594;28;19977;-55
2023/07/24 01:04:54;;;;;;;;;;;26.50;55.80;;;;;;5094931;28;19928;-54
2023/07/24 01:07:21;;;;;;;;;;;26.50;55.60;;;;;;5094746;28;19924;-54
2023/07/24 01:09:50;;;;;;;;;;;26.50;55.70;;;;;;5094780;28;20439;-53
2023/07/24 01:12:22;;;;;;;;;;;26.40;55.70;;;;;;5094486;28;20019;-55
2023/07/24 01:14:54;;;;;;;;;;;26.50;55.60;;;;;;5094919;28;19959;-55
2023/07/24 01:17:23;;;;;;;;;;;26.40;55.90;;;;;;5094729;28;19924;-53
2023/07/24 01:19:54;;;;;;;;;;;26.40;56.00;;;;;;5094597;28;19924;-55
2023/07/24 01:22:40;;;;;;;;;;;26.40;55.90;;;;;;5094737;28;19946;-55
2023/07/24 01:25:26;;;;;;;;;;;26.40;56.00;;;;;;5094292;28;20339;-56
2023/07/24 01:27:53;;;;;;;;;;;26.40;55.90;;;;;;5094419;28;19924;-56
2023/07/24 01:30:20;;;;;;;;;;;26.40;55.90;;;;;;5094609;28;19928;-55
2023/07/24 01:32:48;;;;;;;;;;;26.40;55.60;;;;;;5094078;28;20030;-54
2023/07/24 01:35:15;;;;;;;;;;;26.40;55.70;;;;;;5094483;28;20292;-54
2023/07/24 01:37:43;;;;;;;;;;;26.40;55.60;;;;;;5094171;28;20373;-56
2023/07/24 01:40:10;;;;;;;;;;;26.40;55.50;;;;;;5093926;28;19977;-56
2023/07/24 01:42:38;;;;;;;;;;;26.40;55.50;;;;;;5093931;28;19928;-55
2023/07/24 01:45:05;;;;;;;;;;;26.40;55.50;;;;;;5094407;28;19924;-56
2023/07/24 01:47:32;;;;;;;;;;;26.40;55.60;;;;;;5094019;28;20381;-55
2023/07/24 01:49:59;;;;;;;;;;;26.40;55.60;;;;;;5094109;28;19977;-56
2023/07/24 01:52:26;;;;;;;;;;;26.40;55.50;;;;;;5094007;28;20434;-55
2023/07/24 01:54:53;;;;;;;;;;;26.40;55.50;;;;;;5094139;28;19931;-56
2023/07/24 01:57:20;;;;;;;;;;;26.40;55.60;;;;;;5094056;28;20345;-53
2023/07/24 01:59:48;;;;;;;;;;;26.40;55.50;;;;;;5094052;28;19931;-53
2023/07/24 02:02:15;;;;;;;;;;;26.40;55.60;;;;;;5093878;28;19928;-55
2023/07/24 02:04:42;;;;;;;;;;;26.40;55.60;;;;;;5093628;28;19924;-56
2023/07/24 02:07:09;;;;;;;;;;;26.40;55.60;;;;;;5093729;28;19924;-55
2023/07/24 02:09:36;;;;;;;;;;;26.40;55.60;;;;;;5094168;28;20322;-55
2023/07/24 02:12:03;;;;;;;;;;;26.40;55.60;;;;;;5093761;28;20043;-57
2023/07/24 02:14:30;;;;;;;;;;;26.40;55.60;;;;;;5093755;28;20344;-57
2023/07/24 02:16:57;;;;;;;;;;;26.40;55.50;;;;;;5093515;28;20027;-56
2023/07/24 02:19:24;;;;;;;;;;;26.40;55.50;;;;;;5094012;28;20354;-54
2023/07/24 02:21:51;;;;;;;;;;;26.40;55.80;;;;;;5093338;28;20434;-54
2023/07/24 02:24:18;;;;;;;;;;;26.30;55.50;;;;;;5093385;28;19924;-56
2023/07/24 02:26:45;;;;;;;;;;;26.40;55.50;;;;;;5093933;28;19967;-54
2023/07/24 02:29:12;;;;;;;;;;;26.30;55.40;;;;;;5095450;28;19968;-56
2023/07/24 02:31:39;;;;;;;;;;;26.30;55.60;;;;;;5100251;28;20330;-55
2023/07/24 02:34:06;;;;;;;;;;;26.30;55.70;;;;;;5100293;28;19928;-56
2023/07/24 02:36:33;;;;;;;;;;;26.30;55.60;;;;;;5100371;28;19924;-55
2023/07/24 02:39:00;;;;;;;;;;;26.40;55.80;;;;;;5100179;28;20280;-55
2023/07/24 02:41:27;;;;;;;;;;;26.30;55.80;;;;;;5100039;28;19932;-56
2023/07/24 02:43:54;;;;;;;;;;;26.30;55.70;;;;;;5100355;28;19967;-56
2023/07/24 02:46:23;;;;;;;;;;;26.30;55.60;;;;;;5100340;28;19989;-55
2023/07/24 02:48:50;;;;;;;;;;;26.30;55.60;;;;;;5099972;28;19971;-55
2023/07/24 02:51:17;;;;;;;;;;;26.30;55.60;;;;;;5100284;28;20005;-54
2023/07/24 02:53:44;;;;;;;;;;;26.30;55.60;;;;;;5100399;28;20019;-56
2023/07/24 02:56:10;;;;;;;;;;;26.30;55.70;;;;;;5100342;28;19931;-55
2023/07/24 02:58:37;;;;;;;;;;;26.30;55.60;;;;;;5099836;28;19986;-56
2023/07/24 03:01:06;;;;;;;;;;;26.30;55.60;;;;;;5100173;28;20368;-55
2023/07/24 03:03:34;;;;;;;;;;;26.30;55.70;;;;;;5099924;28;19993;-57
2023/07/24 03:06:01;;;;;;;;;;;26.40;55.70;;;;;;5099706;28;20296;-55
2023/07/24 03:08:28;;;;;;;;;;;26.30;55.60;;;;;;5100157;28;20450;-53
2023/07/24 03:10:55;;;;;;;;;;;26.30;55.80;;;;;;5099545;28;20348;-55
2023/07/24 03:13:22;;;;;;;;;;;26.30;55.70;;;;;;5099707;28;19978;-53
2023/07/24 03:15:53;;;;;;;;;;;26.30;55.70;;;;;;5100153;28;19928;-55
2023/07/24 03:18:22;;;;;;;;;;;26.30;55.70;;;;;;5098945;28;20217;-55
2023/07/24 03:20:49;;;;;;;;;;;26.30;55.60;;;;;;5098426;28;20281;-55
2023/07/24 03:23:16;;;;;;;;;;;26.30;55.60;;;;;;5099568;28;20026;-55
2023/07/24 03:25:43;;;;;;;;;;;26.30;55.60;;;;;;5100134;28;19950;-54
2023/07/24 03:28:10;;;;;;;;;;;26.30;55.80;;;;;;5099274;28;19993;-55
2023/07/24 03:30:37;;;;;;;;;;;26.30;55.70;;;;;;5100161;28;19970;-57
2023/07/24 03:33:04;;;;;;;;;;;26.30;55.70;;;;;;5099428;28;19924;-55
2023/07/24 03:35:31;;;;;;;;;;;26.30;55.70;;;;;;5100038;28;19924;-55
2023/07/24 03:37:58;;;;;;;;;;;26.30;55.60;;;;;;5099077;28;19928;-55
2023/07/24 03:40:25;;;;;;;;;;;26.30;55.60;;;;;;5098804;28;19964;-56
2023/07/24 03:42:52;;;;;;;;;;;26.30;55.70;;;;;;5095488;28;20354;-55
2023/07/24 03:45:19;;;;;;;;;;;26.30;55.60;;;;;;5096214;28;19954;-55
2023/07/24 03:47:46;;;;;;;;;;;26.30;55.60;;;;;;5096626;28;19924;-55
2023/07/24 03:50:13;;;;;;;;;;;26.40;55.70;;;;;;5096696;28;19947;-55
2023/07/24 03:52:40;;;;;;;;;;;26.30;55.70;;;;;;5096238;28;19924;-54
2023/07/24 03:55:07;;;;;;;;;;;26.40;55.60;;;;;;5096392;28;20397;-55
2023/07/24 03:57:35;;;;;;;;;;;26.40;55.60;;;;;;5096339;28;19932;-55
2023/07/24 04:00:02;;;;;;;;;;;26.40;55.50;;;;;;5095932;28;20377;-53
2023/07/24 04:02:29;;;;;;;;;;;26.40;55.50;;;;;;5095903;28;19964;-55
2023/07/24 04:04:56;;;;;;;;;;;26.40;55.50;;;;;;5091040;28;19925;-54
2023/07/24 04:07:23;;;;;;;;;;;26.50;55.50;;;;;;5077462;28;19924;-55
2023/07/24 04:09:50;;;;;;;;;;;26.50;55.50;;;;;;5090943;28;19977;-56
2023/07/24 04:12:17;;;;;;;;;;;26.50;55.50;;;;;;5085214;28;20331;-55
2023/07/24 04:14:44;;;;;;;;;;;26.50;55.50;;;;;;5083668;28;19982;-58
2023/07/24 04:17:11;;;;;;;;;;;26.50;55.50;;;;;;5079668;28;19971;-54
2023/07/24 04:19:38;;;;;;;;;;;26.50;55.30;;;;;;5075420;28;19982;-54
2023/07/24 04:22:05;;;;;;;;;;;26.60;55.40;;;;;;5075594;28;19924;-55
2023/07/24 04:24:32;;;;;;;;;;;26.50;55.20;;;;;;5074412;28;19924;-55
2023/07/24 04:26:59;;;;;;;;;;;26.60;55.20;;;;;;5075002;28;19928;-55
2023/07/24 04:29:26;;;;;;;;;;;26.60;55.20;;;;;;5082366;28;19924;-54
2023/07/24 04:31:53;;;;;;;;;;;26.60;55.10;;;;;;5084967;28;19925;-55
2023/07/24 04:34:20;;;;;;;;;;;26.60;55.10;;;;;;5082340;28;19924;-55
2023/07/24 04:36:47;;;;;;;;;;;26.70;55.10;;;;;;5076008;28;20393;-53
2023/07/24 04:39:13;;;;;;;;;;;26.70;55.00;;;;;;5078686;28;19924;-56
2023/07/24 04:41:40;;;;;;;;;;;26.70;55.00;;;;;;5093617;28;20406;-54
2023/07/24 04:44:07;;;;;;;;;;;26.70;55.00;;;;;;5084122;28;19977;-55
2023/07/24 04:46:34;;;;;;;;;;;26.70;55.10;;;;;;5087549;28;19925;-55
2023/07/24 04:49:01;;;;;;;;;;;26.80;55.20;;;;;;5094926;28;19924;-55
2023/07/24 04:51:28;;;;;;;;;;;26.80;55.10;;;;;;5086554;28;19928;-55
2023/07/24 04:53:55;;;;;;;;;;;26.80;55.10;;;;;;5078176;28;19983;-53
2023/07/24 04:56:22;;;;;;;;;;;26.80;55.10;;;;;;5087470;28;20024;-55
2023/07/24 04:58:49;;;;;;;;;;;26.80;55.10;;;;;;5093164;28;20356;-55
2023/07/24 05:01:16;;;;;;;;;;;26.80;54.80;;;;;;5083908;28;19974;-55
2023/07/24 05:03:43;;;;;;;;;;;26.80;54.80;;;;;;5075492;28;20396;-55
2023/07/24 05:06:10;;;;;;;;;;;26.90;54.90;;;;;;5076462;28;20007;-55
2023/07/24 05:08:37;;;;;;;;;;;26.80;54.60;;;;;;5077053;28;20252;-55
2023/07/24 05:11:04;;;;;;;;;;;26.80;54.40;;;;;;5086689;28;20015;-59
2023/07/24 05:13:31;;;;;;;;;;;26.90;54.40;;;;;;5075587;28;19974;-56
2023/07/24 05:15:58;;;;;;;;;;;26.90;54.40;;;;;;5082664;28;19931;-57
2023/07/24 05:18:25;;;;;;;;;;;26.90;54.60;;;;;;5078364;28;19924;-57
2023/07/24 05:20:52;;;;;;;;;;;26.90;54.80;;;;;;5075908;28;19931;-56
2023/07/24 05:23:19;;;;;;;;;;;26.90;54.60;;;;;;5073957;28;19932;-56
2023/07/24 05:25:46;;;;;;;;;;;27.00;54.30;;;;;;5069106;28;20011;-56
2023/07/24 05:28:13;;;;;;;;;;;27.00;54.10;;;;;;5076478;28;19931;-56
2023/07/24 05:30:40;;;;;;;;;;;27.00;55.00;;;;;;5073387;28;19928;-58
2023/07/24 05:33:07;;;;;;;;;;;27.00;55.30;;;;;;5070088;28;20441;-56
2023/07/24 05:35:34;;;;;;;;;;;27.10;55.00;;;;;;5073560;28;19928;-54
2023/07/24 05:38:01;;;;;;;;;;;27.10;54.50;;;;;;5072877;28;19935;-57
2023/07/24 05:40:28;;;;;;;;;;;27.10;54.40;;;;;;5074856;28;20023;-56
2023/07/24 05:42:55;;;;;;;;;;;27.20;54.40;;;;;;5075500;28;19928;-57
2023/07/24 05:45:22;;;;;;;;;;;27.20;54.30;;;;;;5075041;28;20039;-57
2023/07/24 05:47:50;;;;;;;;;;;27.20;54.50;;;;;;5075049;28;20479;-57
2023/07/24 05:50:17;;;;;;;;;;;27.20;54.40;;;;;;5076102;28;19932;-57
2023/07/24 05:52:43;;;;;;;;;;;27.30;54.50;;;;;;5072328;28;20373;-57
2023/07/24 05:55:10;;;;;;;;;;;27.30;54.10;;;;;;5082211;28;19964;-58
2023/07/24 05:57:37;;;;;;;;;;;27.30;53.90;;;;;;5078618;28;19928;-57
2023/07/24 06:00:05;;;;;;;;;;;27.30;54.00;;;;;;5071599;28;20075;-58
2023/07/24 06:02:32;;;;;;;;;;;27.30;53.50;;;;;;5075397;28;19930;-57
2023/07/24 06:04:59;;;;;;;;;;;27.30;53.30;;;;;;5069078;28;19978;-57
2023/07/24 06:07:26;;;;;;;;;;;27.30;53.30;;;;;;5068471;28;20009;-58
2023/07/24 06:09:54;;;;;;;;;;;27.30;53.40;;;;;;5068462;28;20461;-58
2023/07/24 06:12:21;;;;;;;;;;;27.40;53.40;;;;;;5065969;28;19955;-57
2023/07/24 06:14:48;;;;;;;;;;;27.40;53.40;;;;;;5065336;28;19932;-57
2023/07/24 06:17:15;;;;;;;;;;;27.40;53.40;;;;;;5069241;28;19933;-56
2023/07/24 06:19:42;;;;;;;;;;;27.40;53.30;;;;;;5068901;28;19929;-55
2023/07/24 06:22:09;;;;;;;;;;;27.50;53.00;;;;;;5072968;28;19931;-57
2023/07/24 06:24:37;;;;;;;;;;;27.50;53.10;;;;;;5074857;28;19959;-57
2023/07/24 06:27:06;;;;;;;;;;;27.50;53.00;;;;;;5074009;28;20022;-57
2023/07/24 06:29:33;;;;;;;;;;;27.50;52.80;;;;;;5069968;28;19928;-57
2023/07/24 06:32:00;;;;;;;;;;;27.60;52.70;;;;;;5072612;28;19962;-57
2023/07/24 06:34:27;;;;;;;;;;;27.60;52.70;;;;;;5073617;28;20011;-58
2023/07/24 06:36:55;;;;;;;;;;;27.60;52.70;;;;;;5073046;28;19924;-58
2023/07/24 06:39:38;;;;;;;;;;;27.60;52.90;;;;;;5073842;28;19930;-57
2023/07/24 06:42:05;;;;;;;;;;;27.60;52.70;;;;;;5066719;28;19931;-57
2023/07/24 06:44:32;;;;;;;;;;;27.70;52.60;;;;;;5065179;28;19993;-57
2023/07/24 06:47:00;;;;;;;;;;;27.70;52.60;;;;;;5070499;28;20001;-57
2023/07/24 06:49:27;;;;;;;;;;;27.60;52.60;;;;;;5069937;28;20006;-57
2023/07/24 06:51:54;;;;;;;;;;;27.70;52.60;;;;;;5071802;28;19928;-57
2023/07/24 06:54:21;;;;;;;;;;;27.70;52.40;;;;;;5071078;28;20671;-58
2023/07/24 06:56:48;;;;;;;;;;;27.70;52.50;;;;;;5068730;28;20436;-58
2023/07/24 06:59:15;;;;;;;;;;;27.70;52.40;;;;;;5068702;28;21261;-57
2023/07/24 07:01:42;;;;;;;;;;;27.80;52.40;;;;;;5069823;28;19932;-57
2023/07/24 07:04:09;;;;;;;;;;;27.80;52.20;;;;;;5074187;28;19928;-57
2023/07/24 07:06:36;;;;;;;;;;;27.80;52.20;;;;;;5069774;28;20396;-57
2023/07/24 07:09:05;;;;;;;;;;;27.80;52.20;;;;;;5071557;28;20376;-58
2023/07/24 07:11:32;;;;;;;;;;;27.90;52.10;;;;;;5068656;28;20277;-57
2023/07/24 07:13:59;;;;;;;;;;;27.90;52.10;;;;;;5070664;28;19959;-57
2023/07/24 07:16:26;;;;;;;;;;;27.90;52.10;;;;;;5071390;28;19933;-57
2023/07/24 07:18:54;;;;;;;;;;;27.90;51.90;;;;;;5075853;28;19951;-57
2023/07/24 07:21:21;;;;;;;;;;;28.00;52.10;;;;;;5076072;28;21291;-57
2023/07/24 07:23:49;;;;;;;;;;;28.00;52.10;;;;;;5075041;28;20393;-57
2023/07/24 07:26:16;;;;;;;;;;;28.00;52.00;;;;;;5077525;28;19987;-57
2023/07/24 07:28:44;;;;;;;;;;;28.00;52.00;;;;;;5073797;28;20011;-57
2023/07/24 07:31:11;;;;;;;;;;;28.00;51.90;;;;;;5080568;28;20393;-58
2023/07/24 07:33:38;;;;;;;;;;;28.00;53.30;;;;;;5076159;28;20019;-58
2023/07/24 07:36:05;;;;;;;;;;;28.00;53.10;;;;;;5077659;28;19958;-57
2023/07/24 07:38:32;;;;;;;;;;;27.70;48.20;;;;;;5070239;28;20066;-56
2023/07/24 07:41:03;;;;;;;;;;;27.10;48.80;;;;;;5075931;28;20297;-57
2023/07/24 07:43:30;;;;;;;;;;;26.60;49.50;;;;;;5075377;28;19938;-58
2023/07/24 07:45:59;;;;;;;;;;;26.10;50.30;;;;;;5074787;28;19972;-56
2023/07/24 07:48:26;;;;;;;;;;;25.70;51.30;;;;;;5073863;28;19990;-53
2023/07/24 07:50:53;;;;;;;;;;;25.30;52.20;;;;;;5078317;28;21519;-56
2023/07/24 07:53:20;;;;;;;;;;;25.00;52.60;;;;;;5082000;28;19935;-58
2023/07/24 07:55:54;;;;;;;;;;;24.70;53.50;;;;;;5076474;28;20439;-57
2023/07/24 07:58:21;;;;;;;;;;;24.50;54.10;;;;;;5081755;28;19932;-58
2023/07/24 08:00:49;;;;;;;;;;;24.40;54.80;;;;;;5080349;28;19989;-59
2023/07/24 08:03:16;;;;;;;;;;;24.20;55.30;;;;;;5080141;28;19989;-56
2023/07/24 08:05:43;;;;;;;;;;;24.10;55.90;;;;;;5070876;28;19932;-58
2023/07/24 08:08:09;;;;;;;;;;;24.00;56.30;;;;;;5073776;28;20019;-57
2023/07/24 08:10:37;;;;;;;;;;;23.90;56.50;;;;;;5073253;28;19933;-59
2023/07/24 08:13:04;;;;;;;;;;;23.80;56.90;;;;;;5071331;28;19925;-57
2023/07/24 08:15:35;;;;;;;;;;;23.80;57.50;;;;;;5073175;28;20047;-57
2023/07/24 08:18:04;;;;;;;;;;;23.70;57.40;;;;;;5074286;28;19939;-57
2023/07/24 08:20:32;;;;;;;;;;;23.60;57.40;;;;;;5073445;28;20449;-57
2023/07/24 08:22:59;;;;;;;;;;;23.60;57.30;;;;;;5070237;28;19942;-57
2023/07/24 08:25:26;;;;;;;;;;;23.60;57.50;;;;;;5073912;28;19960;-55
2023/07/24 08:27:53;;;;;;;;;;;23.50;57.30;;;;;;5071435;28;19924;-55
2023/07/24 08:30:31;;;;;;;;;;;23.50;57.20;;;;;;5072842;28;20363;-57
2023/07/24 08:32:59;;;;;;;;;;;23.40;57.30;;;;;;5073376;28;20365;-58
2023/07/24 08:35:27;;;;;;;;;;;23.40;57.70;;;;;;5069708;28;19931;-58
2023/07/24 08:37:54;;;;;;;;;;;23.30;57.70;;;;;;5070989;28;19979;-58
2023/07/24 08:40:21;;;;;;;;;;;23.30;57.30;;;;;;5074411;28;19929;-60
2023/07/24 08:42:50;;;;;;;;;;;23.20;57.50;;;;;;5067495;28;19946;-59
2023/07/24 08:45:17;;;;;;;;;;;23.20;57.90;;;;;;5074410;28;20380;-56
2023/07/24 08:47:45;;;;;;;;;;;23.10;57.60;;;;;;5071117;28;20448;-56
2023/07/24 08:50:14;;;;;;;;;;;23.10;58.10;;;;;;5073722;28;20384;-58
2023/07/24 08:52:46;;;;;;;;;;;23.10;57.60;;;;;;5067713;28;19981;-58
2023/07/24 08:55:14;;;;;;;;;;;23.00;57.80;;;;;;5070572;28;19928;-57
2023/07/24 08:57:41;;;;;;;;;;;22.90;57.50;;;;;;5076513;28;19943;-58
2023/07/24 09:00:08;;;;;;;;;;;22.90;57.80;;;;;;5071285;28;19990;-56
2023/07/24 09:02:35;;;;;;;;;;;22.90;58.10;;;;;;5066801;28;19932;-58
2023/07/24 09:05:03;;;;;;;;;;;22.90;58.10;;;;;;5066332;28;19931;-58
2023/07/24 09:07:31;;;;;;;;;;;22.90;58.30;;;;;;5070135;28;19928;-58
2023/07/24 09:09:58;;;;;;;;;;;22.90;57.90;;;;;;5068399;28;19938;-59
2023/07/24 09:12:25;;;;;;;;;;;22.90;60.20;;;;;;5066177;28;19928;-58
2023/07/24 09:15:05;;;;;;;;;;;23.10;60.90;;;;;;5070812;28;20372;-59
2023/07/24 09:17:34;;;;;;;;;;;23.20;60.50;;;;;;5071020;28;20019;-57
2023/07/24 09:20:02;;;;;;;;;;;23.30;60.00;;;;;;5078441;28;20050;-59
2023/07/24 09:22:29;;;;;;;;;;;23.50;59.70;;;;;;5068442;28;19934;-58
2023/07/24 09:24:57;;;;;;;;;;;23.60;59.40;;;;;;5068534;28;20052;-57
2023/07/24 09:27:26;;;;;;;;;;;23.60;56.10;;;;;;5072932;28;19938;-58
2023/07/24 09:29:53;;;;;;;;;;;23.50;56.60;;;;;;5071577;28;19936;-58
2023/07/24 09:32:21;;;;;;;;;;;23.30;56.50;;;;;;5076708;28;19935;-58
2023/07/24 09:34:50;;;;;;;;;;;23.20;56.50;;;;;;5072614;28;19928;-59
2023/07/24 09:37:28;;;;;;;;;;;23.00;57.10;;;;;;5069835;28;19932;-53
2023/07/24 09:39:55;;;;;;;;;;;22.90;57.60;;;;;;5070431;28;20023;-58
2023/07/24 09:42:28;;;;;;;;;;;22.80;57.50;;;;;;5077662;28;20015;-58
2023/07/24 09:44:56;;;;;;;;;;;22.80;57.80;;;;;;5071752;28;19932;-59
2023/07/24 09:47:23;;;;;;;;;;;22.70;57.90;;;;;;5073412;28;20253;-59
2023/07/24 09:50:10;;;;;;;;;;;22.70;58.10;;;;;;5074258;28;20281;-56
2023/07/24 09:52:41;;;;;;;;;;;22.70;58.00;;;;;;5076578;28;19930;-54
2023/07/24 09:55:11;;;;;;;;;;;22.60;58.00;;;;;;5070611;28;19970;-59
2023/07/24 09:57:41;;;;;;;;;;;22.50;58.30;;;;;;5070791;28;19931;-59
2023/07/24 10:00:09;;;;;;;;;;;22.60;58.00;;;;;;5075972;28;20000;-59
2023/07/24 10:02:36;;;;;;;;;;;22.60;58.10;;;;;;5075486;28;19928;-59
2023/07/24 10:05:03;;;;;;;;;;;22.60;58.30;;;;;;5073071;28;19973;-58
2023/07/24 10:07:31;;;;;;;;;;;22.60;58.10;;;;;;5069350;28;20410;-59
2023/07/24 10:09:59;;;;;;;;;;;22.50;58.00;;;;;;5071547;28;19939;-59
2023/07/24 10:12:31;;;;;;;;;;;22.50;58.40;;;;;;5072609;28;20178;-59
2023/07/24 10:14:58;;;;;;;;;;;22.50;58.60;;;;;;5071821;28;19932;-59
2023/07/24 10:17:39;;;;;;;;;;;22.60;58.50;;;;;;5074821;28;19932;-59
2023/07/24 10:20:10;;;;;;;;;;;22.60;58.10;;;;;;5076550;28;19959;-59
2023/07/24 10:22:41;;;;;;;;;;;22.60;58.20;;;;;;5072047;28;20013;-59
2023/07/24 10:25:09;;;;;;;;;;;22.60;58.00;;;;;;5072816;28;19928;-59
2023/07/24 10:27:42;;;;;;;;;;;22.70;57.80;;;;;;5074019;28;19932;-59
2023/07/24 10:30:10;;;;;;;;;;;22.70;57.80;;;;;;5075144;28;19928;-59
2023/07/24 10:33:08;;;;;;;;;;;22.60;57.60;;;;;;5072686;28;19932;-60
2023/07/24 10:35:39;;;;;;;;;;;22.60;57.80;;;;;;5071883;28;20444;-59
2023/07/24 10:38:06;;;;;;;;;;;22.60;58.00;;;;;;5075522;28;20001;-59
2023/07/24 10:40:34;;;;;;;;;;;22.60;58.10;;;;;;5072606;28;19981;-59
2023/07/24 10:43:04;;;;;;;;;;;22.60;58.00;;;;;;5071481;28;20020;-59
2023/07/24 10:45:41;;;;;;;;;;;22.60;58.10;;;;;;5073309;28;20023;-59
2023/07/24 10:48:11;;;;;;;;;;;22.60;58.30;;;;;;5072538;28;20024;-59
2023/07/24 10:50:40;;;;;;;;;;;22.60;58.20;;;;;;5075755;28;19944;-59
2023/07/24 10:53:08;;;;;;;;;;;22.70;58.30;;;;;;5075865;28;19932;-59
2023/07/24 10:55:35;;;;;;;;;;;22.70;58.30;;;;;;5077262;28;19932;-59
2023/07/24 10:58:02;;;;;;;;;;;22.70;58.50;;;;;;5078907;28;19980;-59
2023/07/24 11:00:29;;;;;;;;;;;22.60;58.30;;;;;;5077359;28;20027;-59
2023/07/24 11:02:56;;;;;;;;;;;22.60;58.00;;;;;;5070266;28;20102;-59
2023/07/24 11:05:23;;;;;;;;;;;22.60;57.90;;;;;;5080291;28;19928;-58
2023/07/24 11:07:50;;;;;;;;;;;22.60;57.90;;;;;;5072019;28;19954;-60
2023/07/24 11:10:18;;;;;;;;;;;22.60;57.80;;;;;;5072742;28;20445;-59
2023/07/24 11:12:47;;;;;;;;;;;22.60;57.60;;;;;;5078156;28;20247;-57
2023/07/24 11:15:15;;;;;;;;;;;22.50;57.80;;;;;;5071819;28;20324;-57
2023/07/24 11:17:42;;;;;;;;;;;22.50;57.70;;;;;;5081752;28;20025;-58
2023/07/24 11:20:10;;;;;;;;;;;22.50;57.60;;;;;;5074801;28;19938;-58
2023/07/24 11:22:38;;;;;;;;;;;22.50;57.80;;;;;;5074120;28;19928;-59
2023/07/24 11:25:06;;;;;;;;;;;22.50;57.90;;;;;;5082155;28;19929;-59
2023/07/24 11:27:37;;;;;;;;;;;22.50;58.00;;;;;;5069832;28;19990;-58
2023/07/24 11:30:05;;;;;;;;;;;22.50;58.30;;;;;;5073365;28;19925;-58
2023/07/24 11:32:32;;;;;;;;;;;22.50;57.80;;;;;;5072812;28;19928;-57
2023/07/24 11:34:59;;;;;;;;;;;22.50;58.00;;;;;;5074248;28;19930;-58
2023/07/24 11:37:26;;;;;;;;;;;22.60;57.80;;;;;;5079040;28;20336;-57
2023/07/24 11:39:55;;;;;;;;;;;22.50;57.90;;;;;;5074104;28;20355;-58
2023/07/24 11:42:24;;;;;;;;;;;22.50;58.40;;;;;;5074130;28;20361;-58
2023/07/24 11:44:51;;;;;;;;;;;22.60;58.30;;;;;;5072980;28;19932;-57
2023/07/24 11:47:18;;;;;;;;;;;22.60;58.40;;;;;;5072116;28;19928;-58
2023/07/24 11:49:58;;;;;;;;;;;22.60;58.30;;;;;;5076435;28;19935;-58
2023/07/24 11:52:26;;;;;;;;;;;22.60;58.40;;;;;;5073955;28;19931;-58
2023/07/24 11:55:03;;;;;;;;;;;22.70;58.50;;;;;;5076742;28;20027;-57
2023/07/24 11:57:30;;;;;;;;;;;22.70;58.70;;;;;;5075857;28;19932;-58
2023/07/24 11:59:58;;;;;;;;;;;22.70;58.40;;;;;;5075721;28;20027;-58
2023/07/24 12:02:28;;;;;;;;;;;22.70;58.80;;;;;;5074878;28;20338;-58
2023/07/24 12:04:56;;;;;;;;;;;22.70;58.70;;;;;;5069704;28;20735;-59
2023/07/24 12:07:28;;;;;;;;;;;22.80;58.80;;;;;;5076897;28;20011;-58
2023/07/24 12:09:55;;;;;;;;;;;22.80;58.70;;;;;;5075692;28;20407;-59
2023/07/24 12:12:22;;;;;;;;;;;22.80;58.50;;;;;;5077389;28;20047;-59
2023/07/24 12:14:49;;;;;;;;;;;22.80;59.00;;;;;;5076389;28;20274;-59
2023/07/24 12:17:19;;;;;;;;;;;22.80;58.70;;;;;;5074324;28;19932;-58
2023/07/24 12:19:47;;;;;;;;;;;22.90;58.60;;;;;;5078151;28;19928;-59
2023/07/24 12:22:14;;;;;;;;;;;22.90;58.60;;;;;;5079010;28;20399;-59
2023/07/24 12:24:41;;;;;;;;;;;22.90;58.60;;;;;;5072945;28;19932;-59
2023/07/24 12:27:08;;;;;;;;;;;22.90;58.20;;;;;;5073190;28;19925;-59
2023/07/24 12:29:35;;;;;;;;;;;22.90;58.10;;;;;;5079080;28;20398;-59
2023/07/24 12:32:03;;;;;;;;;;;22.90;58.20;;;;;;5070313;28;19931;-59
2023/07/24 12:34:30;;;;;;;;;;;22.90;58.30;;;;;;5076131;28;20311;-59
2023/07/24 12:36:57;;;;;;;;;;;22.90;58.10;;;;;;5077104;28;19964;-59
2023/07/24 12:39:24;;;;;;;;;;;22.90;59.70;;;;;;5077802;28;20362;-54
2023/07/24 12:41:51;;;;;;;;;;;23.00;60.80;;;;;;5077407;28;19934;-59
2023/07/24 12:44:18;;;;;;;;;;;23.20;60.10;;;;;;5074083;28;20015;-58
2023/07/24 12:46:46;;;;;;;;;;;23.30;59.70;;;;;;5076164;28;19980;-59
2023/07/24 12:49:13;;;;;;;;;;;23.40;59.30;;;;;;5078516;28;20403;-59
2023/07/24 12:51:39;;;;;;;;;;;23.50;59.40;;;;;;5074689;28;19963;-59
2023/07/24 12:54:06;;;;;;;;;;;23.60;58.60;;;;;;5076408;28;19943;-59
2023/07/24 12:56:54;;;;;;;;;;;23.60;58.50;;;;;;5072880;28;20476;-58
2023/07/24 12:59:21;;;;;;;;;;;23.70;58.30;;;;;;5073072;28;19928;-57
2023/07/24 13:01:48;;;;;;;;;;;23.70;58.20;;;;;;5077874;28;19994;-59
2023/07/24 13:04:15;;;;;;;;;;;23.80;58.60;;;;;;5073273;28;20025;-59
2023/07/24 13:06:42;;;;;;;;;;;23.80;57.70;;;;;;5074566;28;19938;-59
2023/07/24 13:09:09;;;;;;;;;;;23.90;57.60;;;;;;5072267;28;20002;-59
2023/07/24 13:11:36;;;;;;;;;;;23.90;57.60;;;;;;5070745;28;19933;-59
2023/07/24 13:14:03;;;;;;;;;;;23.90;57.50;;;;;;5073864;28;19932;-59
2023/07/24 13:16:30;;;;;;;;;;;24.00;57.40;;;;;;5071371;28;20015;-59
2023/07/24 13:18:58;;;;;;;;;;;24.00;57.30;;;;;;5076181;28;19935;-59
2023/07/24 13:21:25;;;;;;;;;;;24.10;57.50;;;;;;5073504;28;19976;-59
2023/07/24 13:23:52;;;;;;;;;;;24.10;57.50;;;;;;5070314;28;20296;-59
2023/07/24 13:26:19;;;;;;;;;;;24.10;57.30;;;;;;5071081;28;19932;-59
2023/07/24 13:28:46;;;;;;;;;;;24.10;57.10;;;;;;5072103;28;20065;-59
2023/07/24 13:31:14;;;;;;;;;;;24.10;57.20;;;;;;5071364;28;19986;-58
2023/07/24 13:33:42;;;;;;;;;;;24.10;57.20;;;;;;5076045;28;19977;-59
2023/07/24 13:36:09;;;;;;;;;;;24.10;57.10;;;;;;5080477;28;19981;-58
2023/07/24 13:38:36;;;;;;;;;;;24.10;57.40;;;;;;5074819;28;20463;-59
2023/07/24 13:41:04;;;;;;;;;;;24.10;57.30;;;;;;5071652;28;20445;-59
2023/07/24 13:43:31;;;;;;;;;;;24.10;57.40;;;;;;5068075;28;19932;-59
2023/07/24 13:45:59;;;;;;;;;;;24.10;57.60;;;;;;5077555;28;20393;-57
2023/07/24 13:48:27;;;;;;;;;;;24.10;57.70;;;;;;5077806;28;19982;-58
2023/07/24 13:50:54;;;;;;;;;;;24.10;58.20;;;;;;5071743;28;19955;-55
2023/07/24 13:53:21;;;;;;;;;;;24.10;57.60;;;;;;5069093;28;20027;-56
2023/07/24 13:55:51;;;;;;;;;;;24.10;58.10;;;;;;5076970;28;20019;-59
2023/07/24 13:58:18;;;;;;;;;;;24.10;57.30;;;;;;5068588;28;20524;-57
2023/07/24 14:00:45;;;;;;;;;;;24.20;57.40;;;;;;5069507;28;20361;-58
2023/07/24 14:03:12;;;;;;;;;;;24.10;57.40;;;;;;5072065;28;19970;-60
2023/07/24 14:05:40;;;;;;;;;;;24.20;63.60;;;;;;5072137;28;19931;-59
2023/07/24 14:08:08;;;;;;;;;;;24.30;66.90;;;;;;5069094;28;20023;-59
2023/07/24 14:10:36;;;;;;;;;;;24.40;68.10;;;;;;5077387;28;20001;-58
2023/07/24 14:13:03;;;;;;;;;;;24.50;68.00;;;;;;5076039;28;20019;-59
2023/07/24 14:15:30;;;;;;;;;;;24.70;68.30;;;;;;5071123;28;19982;-58
2023/07/24 14:17:57;;;;;;;;;;;24.80;68.60;;;;;;5077028;28;19951;-58
2023/07/24 14:20:27;;;;;;;;;;;24.90;69.00;;;;;;5069713;28;19928;-58